sensor_id;sensor_type;location;lat;lon;timestamp;pressure;altitude;pressure_sealevel;temperature;humidity
66385;BME280;53426;55.872;37.462;2022-09-09T00:00:20;99983.25;;;6.77;72.00
66385;BME280;53426;55.872;37.462;2022-09-09T00:03:27;99983.25;;;6.77;72.00
66385;BME280;53426;55.872;37.462;2022-09-09T00:06:42;99977.25;;;6.75;71.96
66385;BME280;53426;55.872;37.462;2022-09-09T00:09:17;99961.47;;;6.61;72.10
66385;BME280;53426;55.872;37.462;2022-09-09T00:11:52;99977.81;;;6.80;71.98
66385;BME280;53426;55.872;37.462;2022-09-09T00:14:47;99983.94;;;6.81;71.87
66385;BME280;53426;55.872;37.462;2022-09-09T00:20:09;99927.72;;;6.39;72.46
66385;BME280;53426;55.872;37.462;2022-09-09T00:22:41;99994.91;;;6.73;72.06
66385;BME280;53426;55.872;37.462;2022-09-09T00:28:19;99971.53;;;6.54;72.18
66385;BME280;53426;55.872;37.462;2022-09-09T00:30:46;99990.16;;;6.65;71.35
66385;BME280;53426;55.872;37.462;2022-09-09T01:01:50;99971.19;;;6.16;73.08
66385;BME280;53426;55.872;37.462;2022-09-09T01:04:29;99975.50;;;6.17;73.17
66385;BME280;53426;55.872;37.462;2022-09-09T01:07:12;99993.84;;;6.33;72.77
66385;BME280;53426;55.872;37.462;2022-09-09T01:09:50;100024.88;;;6.56;73.19
66385;BME280;53426;55.872;37.462;2022-09-09T01:12:41;99966.28;;;6.10;72.70
66385;BME280;53426;55.872;37.462;2022-09-09T01:15:38;100026.00;;;6.52;72.84
66385;BME280;53426;55.872;37.462;2022-09-09T01:18:12;99920.56;;;5.83;72.26
66385;BME280;53426;55.872;37.462;2022-09-09T01:41:48;99906.13;;;5.15;74.02
66385;BME280;53426;55.872;37.462;2022-09-09T01:44:21;99981.63;;;5.57;74.21
66385;BME280;53426;55.872;37.462;2022-09-09T01:46:48;100020.91;;;5.74;74.40
66385;BME280;53426;55.872;37.462;2022-09-09T01:49:17;100060.16;;;6.08;74.30
66385;BME280;53426;55.872;37.462;2022-09-09T02:08:50;99975.88;;;5.50;74.01
66385;BME280;53426;55.872;37.462;2022-09-09T02:18:45;99901.13;;;4.94;74.50
66385;BME280;53426;55.872;37.462;2022-09-09T02:21:17;100035.94;;;5.72;74.68
66385;BME280;53426;55.872;37.462;2022-09-09T02:24:09;100072.28;;;5.95;74.04
66385;BME280;53426;55.872;37.462;2022-09-09T02:26:42;100043.06;;;5.70;74.67
66385;BME280;53426;55.872;37.462;2022-09-09T02:29:41;100071.44;;;5.79;75.21
66385;BME280;53426;55.872;37.462;2022-09-09T02:32:33;100074.41;;;5.73;75.13
66385;BME280;53426;55.872;37.462;2022-09-09T02:42:45;100094.81;;;5.68;75.73
66385;BME280;53426;55.872;37.462;2022-09-09T02:45:14;100068.41;;;5.55;76.21
66385;BME280;53426;55.872;37.462;2022-09-09T02:48:12;100080.94;;;5.66;76.27
66385;BME280;53426;55.872;37.462;2022-09-09T02:51:10;100098.16;;;5.71;76.00
66385;BME280;53426;55.872;37.462;2022-09-09T02:56:16;100099.47;;;5.63;75.62
66385;BME280;53426;55.872;37.462;2022-09-09T02:58:45;100061.78;;;5.32;75.53
66385;BME280;53426;55.872;37.462;2022-09-09T03:01:12;100067.16;;;5.29;76.16
66385;BME280;53426;55.872;37.462;2022-09-09T03:03:57;100108.97;;;5.50;76.69
66385;BME280;53426;55.872;37.462;2022-09-09T03:06:23;100062.34;;;5.22;76.33
66385;BME280;53426;55.872;37.462;2022-09-09T03:08:57;100112.59;;;5.47;76.79
66385;BME280;53426;55.872;37.462;2022-09-09T03:11:27;100119.63;;;5.46;76.29
66385;BME280;53426;55.872;37.462;2022-09-09T03:13:54;100120.56;;;5.45;76.42
66385;BME280;53426;55.872;37.462;2022-09-09T03:16:23;100083.19;;;5.25;76.78
66385;BME280;53426;55.872;37.462;2022-09-09T03:18:51;100119.81;;;5.43;76.45
66385;BME280;53426;55.872;37.462;2022-09-09T03:21:19;100118.88;;;5.44;76.21
66385;BME280;53426;55.872;37.462;2022-09-09T03:23:49;100084.81;;;5.27;76.29
66385;BME280;53426;55.872;37.462;2022-09-09T03:26:16;100124.75;;;5.50;75.85
66385;BME280;53426;55.872;37.462;2022-09-09T03:28:47;100126.19;;;5.55;76.10
66385;BME280;53426;55.872;37.462;2022-09-09T03:31:20;100109.91;;;5.48;76.14
66385;BME280;53426;55.872;37.462;2022-09-09T03:33:47;100126.72;;;5.62;76.25
66385;BME280;53426;55.872;37.462;2022-09-09T03:36:15;100095.41;;;5.41;75.57
66385;BME280;53426;55.872;37.462;2022-09-09T03:38:41;100110.22;;;5.42;75.61
66385;BME280;53426;55.872;37.462;2022-09-09T03:41:08;100083.03;;;5.28;75.16
66385;BME280;53426;55.872;37.462;2022-09-09T04:07:11;100151.13;;;5.79;74.85
66385;BME280;53426;55.872;37.462;2022-09-09T04:10:09;100145.84;;;5.79;74.99
66385;BME280;53426;55.872;37.462;2022-09-09T04:12:41;100143.50;;;5.75;74.62
66385;BME280;53426;55.872;37.462;2022-09-09T04:18:02;100129.84;;;5.84;73.94
66385;BME280;53426;55.872;37.462;2022-09-09T04:20:28;100144.03;;;5.97;74.24
66385;BME280;53426;55.872;37.462;2022-09-09T04:22:56;100147.84;;;6.07;73.85
66385;BME280;53426;55.872;37.462;2022-09-09T04:25:22;100113.31;;;5.82;73.85
66385;BME280;53426;55.872;37.462;2022-09-09T04:27:56;100145.06;;;6.10;74.03
66385;BME280;53426;55.872;37.462;2022-09-09T04:33:19;100123.63;;;8.71;65.93
66385;BME280;53426;55.872;37.462;2022-09-09T04:35:49;100143.34;;;9.92;62.17
66385;BME280;53426;55.872;37.462;2022-09-09T04:38:17;100151.06;;;10.90;59.78
66385;BME280;53426;55.872;37.462;2022-09-09T04:40:47;100143.84;;;11.83;55.93
66385;BME280;53426;55.872;37.462;2022-09-09T04:43:14;100145.00;;;12.55;53.27
66385;BME280;53426;55.872;37.462;2022-09-09T04:45:43;100151.94;;;13.41;51.04
66385;BME280;53426;55.872;37.462;2022-09-09T04:48:10;100128.00;;;13.71;49.98
66385;BME280;53426;55.872;37.462;2022-09-09T04:50:36;100140.38;;;14.41;47.77
66385;BME280;53426;55.872;37.462;2022-09-09T04:53:04;100145.59;;;14.81;46.18
66385;BME280;53426;55.872;37.462;2022-09-09T04:55:32;100122.78;;;15.25;45.13
66385;BME280;53426;55.872;37.462;2022-09-09T04:58:05;100126.16;;;15.74;44.37
66385;BME280;53426;55.872;37.462;2022-09-09T05:00:33;100127.34;;;15.89;43.17
66385;BME280;53426;55.872;37.462;2022-09-09T05:03:06;100158.28;;;16.19;42.52
66385;BME280;53426;55.872;37.462;2022-09-09T05:05:38;100141.03;;;16.49;42.21
66385;BME280;53426;55.872;37.462;2022-09-09T05:08:08;100124.78;;;16.95;40.51
66385;BME280;53426;55.872;37.462;2022-09-09T05:10:37;100145.78;;;17.08;40.16
66385;BME280;53426;55.872;37.462;2022-09-09T05:13:05;100164.91;;;17.39;40.43
66385;BME280;53426;55.872;37.462;2022-09-09T05:15:32;100162.59;;;17.44;39.38
66385;BME280;53426;55.872;37.462;2022-09-09T05:18:01;100166.50;;;18.09;39.33
66385;BME280;53426;55.872;37.462;2022-09-09T05:20:31;100170.38;;;18.23;37.99
66385;BME280;53426;55.872;37.462;2022-09-09T05:22:57;100170.50;;;18.55;37.54
66385;BME280;53426;55.872;37.462;2022-09-09T05:25:28;100167.50;;;18.58;36.82
66385;BME280;53426;55.872;37.462;2022-09-09T05:27:55;100163.66;;;18.77;37.06
66385;BME280;53426;55.872;37.462;2022-09-09T05:30:21;100175.25;;;19.26;35.54
66385;BME280;53426;55.872;37.462;2022-09-09T05:32:51;100178.28;;;19.63;34.35
66385;BME280;53426;55.872;37.462;2022-09-09T05:35:17;100172.75;;;19.57;34.50
66385;BME280;53426;55.872;37.462;2022-09-09T05:37:45;100159.78;;;19.44;34.96
66385;BME280;53426;55.872;37.462;2022-09-09T05:40:12;100179.31;;;19.46;34.58
66385;BME280;53426;55.872;37.462;2022-09-09T05:42:39;100166.28;;;19.90;34.08
66385;BME280;53426;55.872;37.462;2022-09-09T05:45:07;100159.94;;;20.53;32.76
66385;BME280;53426;55.872;37.462;2022-09-09T05:47:35;100166.34;;;20.75;32.10
66385;BME280;53426;55.872;37.462;2022-09-09T05:50:18;100165.50;;;20.74;32.36
66385;BME280;53426;55.872;37.462;2022-09-09T05:53:07;100174.00;;;20.32;32.43
66385;BME280;53426;55.872;37.462;2022-09-09T05:55:33;100130.88;;;20.49;32.10
66385;BME280;53426;55.872;37.462;2022-09-09T05:57:59;100154.25;;;21.54;30.87
66385;BME280;53426;55.872;37.462;2022-09-09T06:00:25;100177.88;;;21.81;30.36
66385;BME280;53426;55.872;37.462;2022-09-09T06:02:52;100190.38;;;21.97;30.42
66385;BME280;53426;55.872;37.462;2022-09-09T06:05:19;100155.00;;;21.48;30.16
66385;BME280;53426;55.872;37.462;2022-09-09T06:07:45;100174.88;;;21.47;30.74
66385;BME280;53426;55.872;37.462;2022-09-09T06:10:14;100179.38;;;21.98;29.76
66385;BME280;53426;55.872;37.462;2022-09-09T06:12:40;100187.72;;;21.89;30.10
66385;BME280;53426;55.872;37.462;2022-09-09T06:15:07;100179.47;;;21.76;29.39
66385;BME280;53426;55.872;37.462;2022-09-09T06:17:34;100180.50;;;22.19;29.78
66385;BME280;53426;55.872;37.462;2022-09-09T06:20:01;100202.22;;;22.46;29.28
66385;BME280;53426;55.872;37.462;2022-09-09T06:22:30;100199.84;;;22.73;28.41
66385;BME280;53426;55.872;37.462;2022-09-09T06:24:56;100181.16;;;22.57;28.67
66385;BME280;53426;55.872;37.462;2022-09-09T06:27:23;100194.03;;;22.40;28.40
66385;BME280;53426;55.872;37.462;2022-09-09T06:29:51;100160.19;;;21.93;29.03
66385;BME280;53426;55.872;37.462;2022-09-09T06:32:17;100189.31;;;22.42;28.34
66385;BME280;53426;55.872;37.462;2022-09-09T06:34:43;100198.38;;;22.91;27.78
66385;BME280;53426;55.872;37.462;2022-09-09T06:37:13;100189.94;;;23.71;26.36
66385;BME280;53426;55.872;37.462;2022-09-09T06:39:45;100208.34;;;23.83;25.98
66385;BME280;53426;55.872;37.462;2022-09-09T06:42:10;100215.34;;;23.28;26.58
66385;BME280;53426;55.872;37.462;2022-09-09T06:44:53;100199.38;;;22.69;26.37
66385;BME280;53426;55.872;37.462;2022-09-09T06:47:47;100198.88;;;20.26;30.15
66385;BME280;53426;55.872;37.462;2022-09-09T06:50:13;100200.81;;;21.25;28.65
66385;BME280;53426;55.872;37.462;2022-09-09T06:52:40;100199.16;;;21.76;27.70
66385;BME280;53426;55.872;37.462;2022-09-09T06:55:08;100185.09;;;21.51;27.73
66385;BME280;53426;55.872;37.462;2022-09-09T06:57:43;100218.81;;;22.29;27.50
66385;BME280;53426;55.872;37.462;2022-09-09T07:00:14;100197.50;;;22.84;26.19
66385;BME280;53426;55.872;37.462;2022-09-09T07:02:43;100209.44;;;23.39;25.86
66385;BME280;53426;55.872;37.462;2022-09-09T07:05:11;100234.72;;;22.09;26.86
66385;BME280;53426;55.872;37.462;2022-09-09T07:07:39;100226.34;;;22.04;26.90
66385;BME280;53426;55.872;37.462;2022-09-09T07:10:07;100195.72;;;21.07;28.20
66385;BME280;53426;55.872;37.462;2022-09-09T07:12:36;100226.28;;;22.48;26.80
66385;BME280;53426;55.872;37.462;2022-09-09T07:15:03;100230.81;;;23.55;25.53
66385;BME280;53426;55.872;37.462;2022-09-09T07:17:30;100222.69;;;23.55;25.68
66385;BME280;53426;55.872;37.462;2022-09-09T07:19:58;100225.66;;;22.46;26.88
66385;BME280;53426;55.872;37.462;2022-09-09T07:22:25;100193.22;;;22.75;25.68
66385;BME280;53426;55.872;37.462;2022-09-09T07:24:51;100228.81;;;23.21;25.60
66385;BME280;53426;55.872;37.462;2022-09-09T07:27:18;100222.09;;;23.60;25.12
66385;BME280;53426;55.872;37.462;2022-09-09T07:29:44;100207.78;;;22.45;25.99
66385;BME280;53426;55.872;37.462;2022-09-09T07:32:11;100242.34;;;22.71;26.04
66385;BME280;53426;55.872;37.462;2022-09-09T07:34:37;100239.28;;;21.11;28.29
66385;BME280;53426;55.872;37.462;2022-09-09T07:37:03;100216.78;;;20.03;29.46
66385;BME280;53426;55.872;37.462;2022-09-09T07:39:30;100261.75;;;20.33;29.13
66385;BME280;53426;55.872;37.462;2022-09-09T07:41:55;100250.28;;;19.60;30.04
66385;BME280;53426;55.872;37.462;2022-09-09T07:44:24;100259.53;;;19.74;30.09
66385;BME280;53426;55.872;37.462;2022-09-09T07:47:06;100254.63;;;19.77;29.37
66385;BME280;53426;55.872;37.462;2022-09-09T07:49:41;100244.84;;;22.22;26.47
66385;BME280;53426;55.872;37.462;2022-09-09T07:52:15;100253.31;;;23.20;24.71
66385;BME280;53426;55.872;37.462;2022-09-09T07:54:44;100257.22;;;21.64;26.59
66385;BME280;53426;55.872;37.462;2022-09-09T07:57:11;100264.72;;;20.46;28.54
66385;BME280;53426;55.872;37.462;2022-09-09T07:59:38;100257.63;;;21.38;27.07
66385;BME280;53426;55.872;37.462;2022-09-09T08:02:04;100255.00;;;22.70;24.53
66385;BME280;53426;55.872;37.462;2022-09-09T08:04:32;100248.63;;;22.57;25.29
66385;BME280;53426;55.872;37.462;2022-09-09T08:07:00;100241.06;;;23.24;24.06
66385;BME280;53426;55.872;37.462;2022-09-09T08:09:28;100257.75;;;21.22;26.14
66385;BME280;53426;55.872;37.462;2022-09-09T08:12:01;100261.47;;;20.12;27.61
66385;BME280;53426;55.872;37.462;2022-09-09T08:14:28;100267.56;;;19.25;28.79
66385;BME280;53426;55.872;37.462;2022-09-09T08:16:56;100269.63;;;18.39;30.76
66385;BME280;53426;55.872;37.462;2022-09-09T08:19:25;100268.53;;;17.46;32.28
66385;BME280;53426;55.872;37.462;2022-09-09T08:21:52;100270.53;;;17.27;32.83
66385;BME280;53426;55.872;37.462;2022-09-09T08:24:19;100264.66;;;17.84;32.52
66385;BME280;53426;55.872;37.462;2022-09-09T08:26:48;100262.69;;;20.49;28.40
66385;BME280;53426;55.872;37.462;2022-09-09T08:29:17;100263.44;;;22.46;25.24
66385;BME280;53426;55.872;37.462;2022-09-09T08:31:52;100267.03;;;22.82;25.45
66385;BME280;53426;55.872;37.462;2022-09-09T08:34:21;100234.38;;;21.60;26.38
66385;BME280;53426;55.872;37.462;2022-09-09T08:36:50;100260.63;;;21.20;26.70
66385;BME280;53426;55.872;37.462;2022-09-09T08:39:21;100263.88;;;19.67;29.27
66385;BME280;53426;55.872;37.462;2022-09-09T08:47:11;100277.31;;;23.72;24.43
66385;BME280;53426;55.872;37.462;2022-09-09T08:52:54;100276.13;;;19.85;27.83
66385;BME280;53426;55.872;37.462;2022-09-09T08:55:41;100282.25;;;18.80;28.45
66385;BME280;53426;55.872;37.462;2022-09-09T09:00:49;100274.25;;;17.69;31.15
66385;BME280;53426;55.872;37.462;2022-09-09T09:09:57;100264.25;;;18.31;30.28
66385;BME280;53426;55.872;37.462;2022-09-09T09:12:23;100289.81;;;17.48;32.34
66385;BME280;53426;55.872;37.462;2022-09-09T09:14:50;100289.03;;;17.02;33.12
66385;BME280;53426;55.872;37.462;2022-09-09T09:17:22;100299.47;;;16.51;34.02
66385;BME280;53426;55.872;37.462;2022-09-09T09:19:50;100276.50;;;16.85;33.40
66385;BME280;53426;55.872;37.462;2022-09-09T09:24:55;100261.03;;;21.32;26.81
66385;BME280;53426;55.872;37.462;2022-09-09T09:30:20;100276.97;;;18.29;30.62
66385;BME280;53426;55.872;37.462;2022-09-09T09:32:56;100279.78;;;17.50;32.10
66385;BME280;53426;55.872;37.462;2022-09-09T09:35:24;100260.44;;;16.67;33.37
66385;BME280;53426;55.872;37.462;2022-09-09T09:37:51;100281.47;;;16.16;34.52
66385;BME280;53426;55.872;37.462;2022-09-09T09:40:20;100259.75;;;15.92;35.49
66385;BME280;53426;55.872;37.462;2022-09-09T09:42:56;100276.06;;;16.90;34.64
66385;BME280;53426;55.872;37.462;2022-09-09T09:45:32;100279.00;;;17.57;33.22
66385;BME280;53426;55.872;37.462;2022-09-09T09:48:04;100277.09;;;18.19;31.50
66385;BME280;53426;55.872;37.462;2022-09-09T09:50:32;100278.88;;;20.24;28.69
66385;BME280;53426;55.872;37.462;2022-09-09T09:53:02;100277.44;;;20.61;28.29
66385;BME280;53426;55.872;37.462;2022-09-09T09:55:34;100290.75;;;19.50;29.25
66385;BME280;53426;55.872;37.462;2022-09-09T09:58:06;100271.53;;;18.13;31.76
66385;BME280;53426;55.872;37.462;2022-09-09T10:00:35;100282.28;;;17.51;32.99
66385;BME280;53426;55.872;37.462;2022-09-09T10:03:28;100277.53;;;17.02;34.50
66385;BME280;53426;55.872;37.462;2022-09-09T10:05:56;100286.78;;;16.80;34.31
66385;BME280;53426;55.872;37.462;2022-09-09T10:08:27;100284.38;;;17.04;34.83
66385;BME280;53426;55.872;37.462;2022-09-09T10:19:32;100281.34;;;17.17;33.72
66385;BME280;53426;55.872;37.462;2022-09-09T10:22:26;100281.09;;;17.89;33.19
66385;BME280;53426;55.872;37.462;2022-09-09T10:27:38;100277.94;;;21.63;27.30
66385;BME280;53426;55.872;37.462;2022-09-09T10:30:19;100288.22;;;23.00;25.95
66385;BME280;53426;55.872;37.462;2022-09-09T10:32:49;100282.31;;;22.61;25.29
66385;BME280;53426;55.872;37.462;2022-09-09T10:40:33;100294.34;;;23.30;23.99
66385;BME280;53426;55.872;37.462;2022-09-09T10:45:53;100288.94;;;23.94;24.29
66385;BME280;53426;55.872;37.462;2022-09-09T10:53:53;100289.44;;;20.42;27.43
66385;BME280;53426;55.872;37.462;2022-09-09T10:56:26;100291.56;;;19.35;29.38
66385;BME280;53426;55.872;37.462;2022-09-09T10:59:07;100274.00;;;18.82;30.75
66385;BME280;53426;55.872;37.462;2022-09-09T11:01:43;100296.75;;;18.02;32.15
66385;BME280;53426;55.872;37.462;2022-09-09T11:04:50;100280.03;;;17.39;33.28
66385;BME280;53426;55.872;37.462;2022-09-09T11:08:10;100281.78;;;16.95;34.42
66385;BME280;53426;55.872;37.462;2022-09-09T11:10:40;100297.94;;;16.76;34.56
66385;BME280;53426;55.872;37.462;2022-09-09T11:13:16;100265.09;;;16.28;35.46
66385;BME280;53426;55.872;37.462;2022-09-09T11:15:50;100291.88;;;16.09;36.89
66385;BME280;53426;55.872;37.462;2022-09-09T11:18:22;100294.78;;;15.79;36.49
66385;BME280;53426;55.872;37.462;2022-09-09T11:21:14;100293.63;;;15.91;36.10
66385;BME280;53426;55.872;37.462;2022-09-09T11:23:56;100261.78;;;15.51;36.71
66385;BME280;53426;55.872;37.462;2022-09-09T11:26:36;100282.59;;;15.47;37.00
66385;BME280;53426;55.872;37.462;2022-09-09T11:40:23;100292.41;;;16.22;34.35
66385;BME280;53426;55.872;37.462;2022-09-09T11:43:02;100289.19;;;16.19;34.36
66385;BME280;53426;55.872;37.462;2022-09-09T11:45:30;100285.53;;;15.73;35.09
66385;BME280;53426;55.872;37.462;2022-09-09T11:47:59;100292.00;;;15.61;34.86
66385;BME280;53426;55.872;37.462;2022-09-09T11:56:09;100292.53;;;15.45;36.36
66385;BME280;53426;55.872;37.462;2022-09-09T11:58:42;100289.59;;;15.29;37.29
66385;BME280;53426;55.872;37.462;2022-09-09T12:01:24;100296.19;;;15.06;37.80
66385;BME280;53426;55.872;37.462;2022-09-09T12:04:05;100264.97;;;14.58;39.09
66385;BME280;53426;55.872;37.462;2022-09-09T17:26:32;100305.66;;;8.73;55.48
66385;BME280;53426;55.872;37.462;2022-09-09T17:29:31;100355.13;;;8.98;55.93
66385;BME280;53426;55.872;37.462;2022-09-09T17:32:28;100325.97;;;8.72;55.73
66385;BME280;53426;55.872;37.462;2022-09-09T17:35:11;100325.13;;;8.72;56.22
66385;BME280;53426;55.872;37.462;2022-09-09T17:47:58;100326.19;;;8.41;57.49
66385;BME280;53426;55.872;37.462;2022-09-09T17:50:29;100303.28;;;8.27;57.87
66385;BME280;53426;55.872;37.462;2022-09-09T18:01:12;100281.22;;;8.14;58.26
66385;BME280;53426;55.872;37.462;2022-09-09T18:03:42;100339.94;;;8.46;58.34
66385;BME280;53426;55.872;37.462;2022-09-09T18:06:15;100284.63;;;8.16;57.95
66385;BME280;53426;55.872;37.462;2022-09-09T18:08:49;100340.44;;;8.38;58.38
66385;BME280;53426;55.872;37.462;2022-09-09T18:11:17;100378.03;;;8.56;58.40
66385;BME280;53426;55.872;37.462;2022-09-09T18:17:45;100354.06;;;8.59;58.18
66385;BME280;53426;55.872;37.462;2022-09-09T18:48:14;100362.94;;;8.30;59.02
66385;BME280;53426;55.872;37.462;2022-09-09T18:50:49;100371.41;;;8.21;59.40
66385;BME280;53426;55.872;37.462;2022-09-09T18:53:37;100370.75;;;8.17;60.07
66385;BME280;53426;55.872;37.462;2022-09-09T19:11:18;100343.38;;;7.76;61.99
66385;BME280;53426;55.872;37.462;2022-09-09T19:14:00;100295.78;;;7.49;62.96
66385;BME280;53426;55.872;37.462;2022-09-09T19:34:12;100347.00;;;7.59;63.88
66385;BME280;53426;55.872;37.462;2022-09-09T19:36:42;100325.69;;;7.48;64.06
66385;BME280;53426;55.872;37.462;2022-09-09T19:39:35;100374.72;;;7.80;64.65
66385;BME280;53426;55.872;37.462;2022-09-09T19:42:01;100347.34;;;7.53;65.22
66385;BME280;53426;55.872;37.462;2022-09-09T19:44:30;100396.19;;;7.74;65.86
66385;BME280;53426;55.872;37.462;2022-09-09T19:47:12;100392.03;;;7.70;65.83
66385;BME280;53426;55.872;37.462;2022-09-09T19:50:09;100362.34;;;7.52;65.85
66385;BME280;53426;55.872;37.462;2022-09-09T19:52:37;100304.63;;;7.18;66.84
66385;BME280;53426;55.872;37.462;2022-09-09T19:55:11;100397.56;;;7.66;67.09
66385;BME280;53426;55.872;37.462;2022-09-09T20:01:14;100392.75;;;7.58;66.43
66385;BME280;53426;55.872;37.462;2022-09-09T20:03:42;100367.28;;;7.43;66.68
66385;BME280;53426;55.872;37.462;2022-09-09T20:06:10;100389.50;;;7.53;66.55
66385;BME280;53426;55.872;37.462;2022-09-09T20:08:38;100388.84;;;7.49;66.59
66385;BME280;53426;55.872;37.462;2022-09-09T20:11:08;100382.50;;;7.38;66.53
66385;BME280;53426;55.872;37.462;2022-09-09T20:13:36;100401.09;;;7.50;66.60
66385;BME280;53426;55.872;37.462;2022-09-09T20:16:23;100414.78;;;7.57;66.67
66385;BME280;53426;55.872;37.462;2022-09-09T20:18:52;100323.19;;;7.01;66.70
66385;BME280;53426;55.872;37.462;2022-09-09T20:21:40;100406.19;;;7.53;68.55
66385;BME280;53426;55.872;37.462;2022-09-09T20:24:18;100424.03;;;7.48;68.57
66385;BME280;53426;55.872;37.462;2022-09-09T20:26:47;100425.16;;;7.44;69.69
66385;BME280;53426;55.872;37.462;2022-09-09T20:29:17;100417.34;;;7.43;69.95
66385;BME280;53426;55.872;37.462;2022-09-09T20:31:47;100403.91;;;7.32;69.92
66385;BME280;53426;55.872;37.462;2022-09-09T20:34:16;100398.25;;;7.24;70.12
66385;BME280;53426;55.872;37.462;2022-09-09T20:36:43;100387.88;;;7.21;70.17
66385;BME280;53426;55.872;37.462;2022-09-09T20:39:16;100391.03;;;7.11;70.88
66385;BME280;53426;55.872;37.462;2022-09-09T20:41:44;100374.47;;;7.09;72.39
66385;BME280;53426;55.872;37.462;2022-09-09T20:44:20;100423.91;;;7.36;72.17
66385;BME280;53426;55.872;37.462;2022-09-09T20:50:29;100411.56;;;7.21;69.62
66385;BME280;53426;55.872;37.462;2022-09-09T20:52:55;100406.31;;;7.21;69.18
66385;BME280;53426;55.872;37.462;2022-09-09T20:55:24;100405.06;;;7.12;69.42
66385;BME280;53426;55.872;37.462;2022-09-09T20:57:50;100392.31;;;7.04;69.44
66385;BME280;53426;55.872;37.462;2022-09-09T21:00:22;100411.00;;;7.15;68.82
66385;BME280;53426;55.872;37.462;2022-09-09T21:02:53;100411.00;;;7.15;68.66
66385;BME280;53426;55.872;37.462;2022-09-09T21:06:10;100418.63;;;7.20;68.98
66385;BME280;53426;55.872;37.462;2022-09-09T21:08:37;100410.25;;;6.98;68.91
66385;BME280;53426;55.872;37.462;2022-09-09T21:11:04;100388.41;;;6.80;69.24
66385;BME280;53426;55.872;37.462;2022-09-09T21:13:34;100399.03;;;6.94;69.46
66385;BME280;53426;55.872;37.462;2022-09-09T21:16:02;100426.19;;;7.10;69.46
66385;BME280;53426;55.872;37.462;2022-09-09T21:21:23;100408.03;;;6.90;69.34
66385;BME280;53426;55.872;37.462;2022-09-09T21:27:23;100419.34;;;6.92;69.68
66385;BME280;53426;55.872;37.462;2022-09-09T21:29:50;100401.41;;;6.83;69.17
66385;BME280;53426;55.872;37.462;2022-09-09T21:32:16;100401.56;;;6.80;68.75
66385;BME280;53426;55.872;37.462;2022-09-09T21:34:42;100421.38;;;6.87;68.87
66385;BME280;53426;55.872;37.462;2022-09-09T21:37:08;100411.84;;;6.85;69.17
66385;BME280;53426;55.872;37.462;2022-09-09T21:39:34;100418.81;;;6.86;68.88
66385;BME280;53426;55.872;37.462;2022-09-09T21:41:59;100427.97;;;6.94;69.40
66385;BME280;53426;55.872;37.462;2022-09-09T21:44:26;100439.38;;;6.95;70.78
66385;BME280;53426;55.872;37.462;2022-09-09T21:46:52;100430.63;;;6.94;72.09
66385;BME280;53426;55.872;37.462;2022-09-09T21:49:17;100429.41;;;6.84;72.24
66385;BME280;53426;55.872;37.462;2022-09-09T21:51:44;100434.44;;;6.89;72.01
66385;BME280;53426;55.872;37.462;2022-09-09T21:54:12;100431.19;;;6.84;72.61
66385;BME280;53426;55.872;37.462;2022-09-09T21:56:38;100403.16;;;6.67;72.75
66385;BME280;53426;55.872;37.462;2022-09-09T21:59:03;100421.78;;;6.80;72.01
66385;BME280;53426;55.872;37.462;2022-09-09T22:01:30;100432.25;;;6.81;71.66
66385;BME280;53426;55.872;37.462;2022-09-09T22:03:58;100434.28;;;6.76;71.11
66385;BME280;53426;55.872;37.462;2022-09-09T22:06:27;100431.00;;;6.71;70.25
66385;BME280;53426;55.872;37.462;2022-09-09T22:08:53;100429.41;;;6.68;69.17
66385;BME280;53426;55.872;37.462;2022-09-09T22:11:23;100428.31;;;6.72;68.78
66385;BME280;53426;55.872;37.462;2022-09-09T22:13:50;100431.72;;;6.75;69.00
66385;BME280;53426;55.872;37.462;2022-09-09T22:16:19;100424.31;;;6.65;68.33
66385;BME280;53426;55.872;37.462;2022-09-09T22:18:57;100436.13;;;6.74;68.63
66385;BME280;53426;55.872;37.462;2022-09-09T22:21:25;100445.97;;;6.70;69.10
66385;BME280;53426;55.872;37.462;2022-09-09T22:23:55;100445.13;;;6.70;69.42
66385;BME280;53426;55.872;37.462;2022-09-09T22:26:23;100439.00;;;6.69;68.71
66385;BME280;53426;55.872;37.462;2022-09-09T22:28:49;100431.38;;;6.65;68.93
66385;BME280;53426;55.872;37.462;2022-09-09T22:31:16;100427.97;;;6.63;68.53
66385;BME280;53426;55.872;37.462;2022-09-09T22:33:41;100387.00;;;6.42;68.62
66385;BME280;53426;55.872;37.462;2022-09-09T22:36:07;100434.59;;;6.70;69.06
66385;BME280;53426;55.872;37.462;2022-09-09T22:38:33;100432.13;;;6.67;69.34
66385;BME280;53426;55.872;37.462;2022-09-09T22:41:02;100424.66;;;6.59;69.65
66385;BME280;53426;55.872;37.462;2022-09-09T22:43:29;100415.53;;;6.49;68.93
66385;BME280;53426;55.872;37.462;2022-09-09T22:45:57;100429.13;;;6.57;69.82
66385;BME280;53426;55.872;37.462;2022-09-09T22:48:23;100433.63;;;6.55;69.79
66385;BME280;53426;55.872;37.462;2022-09-09T22:50:49;100431.09;;;6.54;70.25
66385;BME280;53426;55.872;37.462;2022-09-09T22:53:17;100402.94;;;6.39;70.17
66385;BME280;53426;55.872;37.462;2022-09-09T22:55:56;100434.47;;;6.56;69.63
66385;BME280;53426;55.872;37.462;2022-09-09T22:58:26;100417.91;;;6.38;69.98
66385;BME280;53426;55.872;37.462;2022-09-09T23:00:52;100419.56;;;6.39;70.34
66385;BME280;53426;55.872;37.462;2022-09-09T23:03:18;100418.03;;;6.35;70.88
66385;BME280;53426;55.872;37.462;2022-09-09T23:05:59;100420.69;;;6.35;69.70
66385;BME280;53426;55.872;37.462;2022-09-09T23:08:29;100437.75;;;6.44;69.02
66385;BME280;53426;55.872;37.462;2022-09-09T23:10:59;100444.38;;;6.51;69.66